Maersk Wolfsburg — VRGP3 — position and weather

sailwx.info

Track history (hours):
 
Tides and Currents Weather Stations Pressure Air Temp Water Temp Dewpoint Dewpoint Depression Visibility Wind Speed Wind Dir Waves Ship Positions

Maersk Wolfsburg

Last reported at 2017-Oct-17 09:00 UTC. Time now 2017-Oct-18 11:23 UTC.
Position N 38°17' W 074°42'.

Length 175 m; draft 7 m.

Type: Ship (hazmat cat A). MMSI: 477742500.

Date/timePositionNaut miles runAvg speedWind from/ knotsBaromVisibWave heightAir tempDewpointWater temp
2017-Oct-17 09:00N 38°17' W 074°42'3714.9
2017-Oct-17 06:30N 38°49' W 075°04'713.2
2017-Oct-17 06:00N 38°56' W 075°06'816.7
2017-Oct-17 05:30N 39°03' W 075°10'917.2
2017-Oct-17 05:00N 39°11' W 075°16'917.3
2017-Oct-17 04:30N 39°18' W 075°23'815.5
2017-Oct-17 04:01N 39°23' W 075°29'714.4
2017-Oct-17 03:30N 39°30' W 075°34'611.7
2017-Oct-17 03:00N 39°36' W 075°34'611.1
2017-Oct-17 02:31N 39°41' W 075°31'611.7
2017-Oct-17 02:00N 39°46' W 075°28'5 9.2
2017-Oct-17 01:30N 39°49' W 075°24'510.2
2017-Oct-17 01:00N 39°51' W 075°17'4 8.9
2017-Oct-17 00:30N 39°53' W 075°12'3 6.5
2017-Oct-17 00:00N 39°54' W 075°08'0 0.2
2017-Oct-16 23:28N 39°54' W 075°08'0 0.0
2017-Oct-16 22:58N 39°54' W 075°08'0 0.0
2017-Oct-16 22:28N 39°54' W 075°08'0 0.0
2017-Oct-16 21:58N 39°54' W 075°08'0 0.0
2017-Oct-16 21:28N 39°54' W 075°08'0 0.0
2017-Oct-16 20:58N 39°54' W 075°08'0 0.0
2017-Oct-16 20:28N 39°54' W 075°08'0 0.0
2017-Oct-16 19:58N 39°54' W 075°08'0 0.0
2017-Oct-16 19:28N 39°54' W 075°08'0 0.0
2017-Oct-16 18:58N 39°54' W 075°08'0 0.0
2017-Oct-16 18:28N 39°54' W 075°08'0 0.0
2017-Oct-16 17:58N 39°54' W 075°08'0 0.0
2017-Oct-16 17:28N 39°54' W 075°08'0 0.0
2017-Oct-16 16:58N 39°54' W 075°08'0 0.0
2017-Oct-16 16:28N 39°54' W 075°08'0 0.0
2017-Oct-16 15:58N 39°54' W 075°08'0 0.0
2017-Oct-16 15:28N 39°54' W 075°08'0 0.0
2017-Oct-16 14:58N 39°54' W 075°08'0 0.0
2017-Oct-16 14:28N 39°54' W 075°08'0 0.0
2017-Oct-16 13:28N 39°54' W 075°08'0 0.0
2017-Oct-16 12:58N 39°54' W 075°08'0 0.0
2017-Oct-16 12:28N 39°54' W 075°08'0 0.0
2017-Oct-16 11:58N 39°54' W 075°08'0 0.1
2017-Oct-16 11:31N 39°54' W 075°08'2 3.9
2017-Oct-16 11:01N 39°53' W 075°10'4 8.0
2017-Oct-16 10:30N 39°51' W 075°15'611.1
2017-Oct-16 10:00N 39°50' W 075°22'611.0
2017-Oct-16 09:30N 39°47' W 075°28'713.9
2017-Oct-16 09:01N 39°40' W 075°32'611.8
2017-Oct-16 08:31N 39°34' W 075°33'510.9
2017-Oct-16 08:00N 39°29' W 075°34'713.0
2017-Oct-16 07:30N 39°24' W 075°29'613.0
2017-Oct-16 07:00N 39°19' W 075°24'713.5
2017-Oct-16 06:30N 39°14' W 075°18'714.5
2017-Oct-16 06:01N 39°07' W 075°13'714.7
2017-Oct-16 05:30N 39°01' W 075°09'815.3
2017-Oct-16 05:01N 38°54' W 075°05'713.3
2017-Oct-16 04:30N 38°48' W 075°02'4 7.9
2017-Oct-16 04:01N 38°45' W 074°58'4 8.6
2017-Oct-16 03:30N 38°43' W 074°53'3 5.9
2017-Oct-16 02:59N 38°42' W 074°50'0 1.0
2017-Oct-16 02:30N 38°42' W 074°50'1 1.4
2017-Oct-16 02:01N 38°41' W 074°50'1 1.5
2017-Oct-16 01:30N 38°40' W 074°50'4 7.3
2017-Oct-16 01:00N 38°38' W 074°48'9 8.2
2017-Oct-15 23:58N 38°43' W 074°39'1 1.4
2017-Oct-15 23:27N 38°42' W 074°39'1 1.9
2017-Oct-15 23:01N 38°42' W 074°39'1 2.0
2017-Oct-15 22:30N 38°41' W 074°39'1 2.0
2017-Oct-15 21:54N 38°39' W 074°39'1 2.1
2017-Oct-15 21:30N 38°39' W 074°39'2 2.2
2017-Oct-15 20:47N 38°37' W 074°39'1 2.2
2017-Oct-15 20:29N 38°36' W 074°39'1 2.1
2017-Oct-15 19:49N 38°35' W 074°39'1 1.9
2017-Oct-15 19:26N 38°34' W 074°40'3 5.9
2017-Oct-15 18:59N 38°32' W 074°39'510.2
2017-Oct-15 18:28N 38°27' W 074°36'4 7.5
2017-Oct-15 17:59N 38°26' W 074°32'1 1.5
2017-Oct-15 17:31N 38°25' W 074°32'1 1.3
2017-Oct-15 17:00N 38°24' W 074°32'1 1.2
2017-Oct-15 16:30N 38°24' W 074°32'1 1.1
2017-Oct-15 16:01N 38°23' W 074°32'0 0.9
2017-Oct-15 15:30N 38°23' W 074°33'0 0.8
2017-Oct-15 15:01N 38°22' W 074°33'1 0.7
2017-Oct-15 14:00N 38°22' W 074°33'0 0.4
2017-Oct-15 13:30N 38°21' W 074°33'0 0.4
2017-Oct-15 12:59N 38°21' W 074°33'0 0.5
2017-Oct-15 12:30N 38°21' W 074°33'0 0.4
2017-Oct-15 12:00N 38°21' W 074°33'1 1.8
2017-Oct-15 11:26N 38°20' W 074°34'4 8.8
2017-Oct-15 10:59N 38°17' W 074°36'511.0
2017-Oct-15 10:30N 38°12' W 074°39'811.5
2017-Oct-15 09:48N 38°04' W 074°44'411.3
2017-Oct-15 09:26N 38°01' W 074°46'511.1
2017-Oct-15 09:00N 37°56' W 074°49'611.3
2017-Oct-15 08:30N 37°51' W 074°52'611.1
2017-Oct-15 07:59N 37°46' W 074°55'611.0
2017-Oct-15 07:28N 37°41' W 074°58'610.9
2017-Oct-15 06:55N 37°36' W 075°02'510.7
2017-Oct-15 06:26N 37°31' W 075°05'510.6
2017-Oct-15 05:59N 37°27' W 075°08'510.4
2017-Oct-15 05:30N 37°23' W 075°11'610.5
2017-Oct-15 04:54N 37°18' W 075°17'410.3
2017-Oct-15 04:30N 37°15' W 075°20'510.1
2017-Oct-15 04:00N 37°11' W 075°24'510.1
2017-Oct-15 03:28N 37°07' W 075°28'5 9.9
2017-Oct-15 03:00N 37°04' W 075°32'510.0
2017-Oct-15 02:30N 37°01' W 075°38'710.2
2017-Oct-15 01:46N 36°58' W 075°46'310.4
2017-Oct-15 01:30N 36°57' W 075°49'510.8
2017-Oct-15 01:00N 36°56' W 075°56'510.3
2017-Oct-15 00:30N 36°57' W 076°02'915.5
2017-Oct-14 23:54N 37°00' W 076°13'10 4.3
2017-Oct-14 21:32N 36°51' W 076°20'0 0.1
2017-Oct-14 21:29N 36°51' W 076°20'0 0.0
2017-Oct-14 20:59N 36°51' W 076°20'0 0.0
2017-Oct-14 20:29N 36°51' W 076°20'0 0.0
2017-Oct-14 19:56N 36°51' W 076°20'0 0.0
2017-Oct-14 19:29N 36°51' W 076°20'0 0.0
2017-Oct-14 18:56N 36°51' W 076°20'0 0.0
2017-Oct-14 18:29N 36°51' W 076°20'0 0.0
2017-Oct-14 17:59N 36°51' W 076°20'0 0.0
2017-Oct-14 17:29N 36°51' W 076°20'0 0.0
2017-Oct-14 16:59N 36°51' W 076°20'0 0.0
2017-Oct-14 16:29N 36°51' W 076°20'0 0.0
2017-Oct-14 15:59N 36°51' W 076°20'0 0.0
2017-Oct-14 15:29N 36°51' W 076°20'0 0.0
2017-Oct-14 14:59N 36°51' W 076°20'0 0.0
2017-Oct-14 14:29N 36°51' W 076°20'0 0.0
2017-Oct-14 13:59N 36°51' W 076°20'0 0.0
2017-Oct-14 13:29N 36°51' W 076°20'0 0.0
2017-Oct-14 12:59N 36°51' W 076°20'0 0.0
2017-Oct-14 12:29N 36°51' W 076°20'0 0.0
2017-Oct-14 11:59N 36°51' W 076°20'0 0.0
2017-Oct-14 11:29N 36°51' W 076°20'0 0.0
2017-Oct-14 10:59N 36°51' W 076°20'0 0.0
2017-Oct-14 10:29N 36°51' W 076°20'0 0.7
2017-Oct-14 10:00N 36°52' W 076°19'2 4.6
2017-Oct-14 09:30N 36°54' W 076°20'3 6.1
2017-Oct-14 09:00N 36°57' W 076°20'5 9.5
2017-Oct-14 08:29N 37°00' W 076°16'815.6
2017-Oct-14 07:59N 36°58' W 076°06'714.4
2017-Oct-14 07:31N 36°57' W 075°58'4 8.4
2017-Oct-14 07:01N 36°55' W 075°54'811.1
2017-Oct-14 06:16N 36°50' W 075°46'  
2017-Oct-10 16:17N 25°54' W 079°27'  
Track history (hours):
 
Tides and Currents Weather Stations Pressure Air Temp Water Temp Dewpoint Dewpoint Depression Visibility Wind Speed Wind Dir Waves Ship Positions

Maersk Wolfsburg

Last reported at 2017-Oct-17 09:00 UTC. Time now 2017-Oct-18 11:23 UTC.
Position N 38°17' W 074°42'.

Length 175 m; draft 7 m.

Type: Ship (hazmat cat A). MMSI: 477742500.

Date/timePositionNaut miles runAvg speedWind from/ knotsBaromVisibWave heightAir tempDewpointWater temp
2017-Oct-17 09:00N 38°17' W 074°42'3714.9
2017-Oct-17 06:30N 38°49' W 075°04'713.2
2017-Oct-17 06:00N 38°56' W 075°06'816.7
2017-Oct-17 05:30N 39°03' W 075°10'917.2
2017-Oct-17 05:00N 39°11' W 075°16'917.3
2017-Oct-17 04:30N 39°18' W 075°23'815.5
2017-Oct-17 04:01N 39°23' W 075°29'714.4
2017-Oct-17 03:30N 39°30' W 075°34'611.7
2017-Oct-17 03:00N 39°36' W 075°34'611.1
2017-Oct-17 02:31N 39°41' W 075°31'611.7
2017-Oct-17 02:00N 39°46' W 075°28'5 9.2
2017-Oct-17 01:30N 39°49' W 075°24'510.2
2017-Oct-17 01:00N 39°51' W 075°17'4 8.9
2017-Oct-17 00:30N 39°53' W 075°12'3 6.5
2017-Oct-17 00:00N 39°54' W 075°08'0 0.2
2017-Oct-16 23:28N 39°54' W 075°08'0 0.0
2017-Oct-16 22:58N 39°54' W 075°08'0 0.0
2017-Oct-16 22:28N 39°54' W 075°08'0 0.0
2017-Oct-16 21:58N 39°54' W 075°08'0 0.0
2017-Oct-16 21:28N 39°54' W 075°08'0 0.0
2017-Oct-16 20:58N 39°54' W 075°08'0 0.0
2017-Oct-16 20:28N 39°54' W 075°08'0 0.0
2017-Oct-16 19:58N 39°54' W 075°08'0 0.0
2017-Oct-16 19:28N 39°54' W 075°08'0 0.0
2017-Oct-16 18:58N 39°54' W 075°08'0 0.0
2017-Oct-16 18:28N 39°54' W 075°08'0 0.0
2017-Oct-16 17:58N 39°54' W 075°08'0 0.0
2017-Oct-16 17:28N 39°54' W 075°08'0 0.0
2017-Oct-16 16:58N 39°54' W 075°08'0 0.0
2017-Oct-16 16:28N 39°54' W 075°08'0 0.0
2017-Oct-16 15:58N 39°54' W 075°08'0 0.0
2017-Oct-16 15:28N 39°54' W 075°08'0 0.0
2017-Oct-16 14:58N 39°54' W 075°08'0 0.0
2017-Oct-16 14:28N 39°54' W 075°08'0 0.0
2017-Oct-16 13:28N 39°54' W 075°08'0 0.0
2017-Oct-16 12:58N 39°54' W 075°08'0 0.0
2017-Oct-16 12:28N 39°54' W 075°08'0 0.0
2017-Oct-16 11:58N 39°54' W 075°08'0 0.1
2017-Oct-16 11:31N 39°54' W 075°08'2 3.9
2017-Oct-16 11:01N 39°53' W 075°10'4 8.0
2017-Oct-16 10:30N 39°51' W 075°15'611.1
2017-Oct-16 10:00N 39°50' W 075°22'611.0
2017-Oct-16 09:30N 39°47' W 075°28'713.9
2017-Oct-16 09:01N 39°40' W 075°32'611.8
2017-Oct-16 08:31N 39°34' W 075°33'510.9
2017-Oct-16 08:00N 39°29' W 075°34'713.0
2017-Oct-16 07:30N 39°24' W 075°29'613.0
2017-Oct-16 07:00N 39°19' W 075°24'713.5
2017-Oct-16 06:30N 39°14' W 075°18'714.5
2017-Oct-16 06:01N 39°07' W 075°13'714.7
2017-Oct-16 05:30N 39°01' W 075°09'815.3
2017-Oct-16 05:01N 38°54' W 075°05'713.3
2017-Oct-16 04:30N 38°48' W 075°02'4 7.9
2017-Oct-16 04:01N 38°45' W 074°58'4 8.6
2017-Oct-16 03:30N 38°43' W 074°53'3 5.9
2017-Oct-16 02:59N 38°42' W 074°50'0 1.0
2017-Oct-16 02:30N 38°42' W 074°50'1 1.4
2017-Oct-16 02:01N 38°41' W 074°50'1 1.5
2017-Oct-16 01:30N 38°40' W 074°50'4 7.3
2017-Oct-16 01:00N 38°38' W 074°48'9 8.2
2017-Oct-15 23:58N 38°43' W 074°39'1 1.4
2017-Oct-15 23:27N 38°42' W 074°39'1 1.9
2017-Oct-15 23:01N 38°42' W 074°39'1 2.0
2017-Oct-15 22:30N 38°41' W 074°39'1 2.0
2017-Oct-15 21:54N 38°39' W 074°39'1 2.1
2017-Oct-15 21:30N 38°39' W 074°39'2 2.2
2017-Oct-15 20:47N 38°37' W 074°39'1 2.2
2017-Oct-15 20:29N 38°36' W 074°39'1 2.1
2017-Oct-15 19:49N 38°35' W 074°39'1 1.9
2017-Oct-15 19:26N 38°34' W 074°40'3 5.9
2017-Oct-15 18:59N 38°32' W 074°39'510.2
2017-Oct-15 18:28N 38°27' W 074°36'4 7.5
2017-Oct-15 17:59N 38°26' W 074°32'1 1.5
2017-Oct-15 17:31N 38°25' W 074°32'1 1.3
2017-Oct-15 17:00N 38°24' W 074°32'1 1.2
2017-Oct-15 16:30N 38°24' W 074°32'1 1.1
2017-Oct-15 16:01N 38°23' W 074°32'0 0.9
2017-Oct-15 15:30N 38°23' W 074°33'0 0.8
2017-Oct-15 15:01N 38°22' W 074°33'1 0.7
2017-Oct-15 14:00N 38°22' W 074°33'0 0.4
2017-Oct-15 13:30N 38°21' W 074°33'0 0.4
2017-Oct-15 12:59N 38°21' W 074°33'0 0.5
2017-Oct-15 12:30N 38°21' W 074°33'0 0.4
2017-Oct-15 12:00N 38°21' W 074°33'1 1.8
2017-Oct-15 11:26N 38°20' W 074°34'4 8.8
2017-Oct-15 10:59N 38°17' W 074°36'511.0
2017-Oct-15 10:30N 38°12' W 074°39'811.5
2017-Oct-15 09:48N 38°04' W 074°44'411.3
2017-Oct-15 09:26N 38°01' W 074°46'511.1
2017-Oct-15 09:00N 37°56' W 074°49'611.3
2017-Oct-15 08:30N 37°51' W 074°52'611.1
2017-Oct-15 07:59N 37°46' W 074°55'611.0
2017-Oct-15 07:28N 37°41' W 074°58'610.9
2017-Oct-15 06:55N 37°36' W 075°02'510.7
2017-Oct-15 06:26N 37°31' W 075°05'510.6
2017-Oct-15 05:59N 37°27' W 075°08'510.4
2017-Oct-15 05:30N 37°23' W 075°11'610.5
2017-Oct-15 04:54N 37°18' W 075°17'410.3
2017-Oct-15 04:30N 37°15' W 075°20'510.1
2017-Oct-15 04:00N 37°11' W 075°24'510.1
2017-Oct-15 03:28N 37°07' W 075°28'5 9.9
2017-Oct-15 03:00N 37°04' W 075°32'510.0
2017-Oct-15 02:30N 37°01' W 075°38'710.2
2017-Oct-15 01:46N 36°58' W 075°46'310.4
2017-Oct-15 01:30N 36°57' W 075°49'510.8
2017-Oct-15 01:00N 36°56' W 075°56'510.3
2017-Oct-15 00:30N 36°57' W 076°02'915.5
2017-Oct-14 23:54N 37°00' W 076°13'10 4.3
2017-Oct-14 21:32N 36°51' W 076°20'0 0.1
2017-Oct-14 21:29N 36°51' W 076°20'0 0.0
2017-Oct-14 20:59N 36°51' W 076°20'0 0.0
2017-Oct-14 20:29N 36°51' W 076°20'0 0.0
2017-Oct-14 19:56N 36°51' W 076°20'0 0.0
2017-Oct-14 19:29N 36°51' W 076°20'0 0.0
2017-Oct-14 18:56N 36°51' W 076°20'0 0.0
2017-Oct-14 18:29N 36°51' W 076°20'0 0.0
2017-Oct-14 17:59N 36°51' W 076°20'0 0.0
2017-Oct-14 17:29N 36°51' W 076°20'0 0.0
2017-Oct-14 16:59N 36°51' W 076°20'0 0.0
2017-Oct-14 16:29N 36°51' W 076°20'0 0.0
2017-Oct-14 15:59N 36°51' W 076°20'0 0.0
2017-Oct-14 15:29N 36°51' W 076°20'0 0.0
2017-Oct-14 14:59N 36°51' W 076°20'0 0.0
2017-Oct-14 14:29N 36°51' W 076°20'0 0.0
2017-Oct-14 13:59N 36°51' W 076°20'0 0.0
2017-Oct-14 13:29N 36°51' W 076°20'0 0.0
2017-Oct-14 12:59N 36°51' W 076°20'0 0.0
2017-Oct-14 12:29N 36°51' W 076°20'0 0.0
2017-Oct-14 11:59N 36°51' W 076°20'0 0.0
2017-Oct-14 11:29N 36°51' W 076°20'0 0.0
2017-Oct-14 10:59N 36°51' W 076°20'0 0.0
2017-Oct-14 10:29N 36°51' W 076°20'0 0.7
2017-Oct-14 10:00N 36°52' W 076°19'2 4.6
2017-Oct-14 09:30N 36°54' W 076°20'3 6.1
2017-Oct-14 09:00N 36°57' W 076°20'5 9.5
2017-Oct-14 08:29N 37°00' W 076°16'815.6
2017-Oct-14 07:59N 36°58' W 076°06'714.4
2017-Oct-14 07:31N 36°57' W 075°58'4 8.4
2017-Oct-14 07:01N 36°55' W 075°54'811.1
2017-Oct-14 06:16N 36°50' W 075°46'  
2017-Oct-10 16:17N 25°54' W 079°27'  

Dump ship's entire track history